sensor_id;sensor_type;location;lat;lon;timestamp;P1;durP1;ratioP1;P2;durP2;ratioP2
21235;SDS011;10775;42.678;26.324;2022-12-07T00:00:53;11.75;;;5.13;;
21235;SDS011;10775;42.678;26.324;2022-12-07T00:03:20;11.43;;;5.57;;
21235;SDS011;10775;42.678;26.324;2022-12-07T00:05:45;11.55;;;6.35;;
21235;SDS011;10775;42.678;26.324;2022-12-07T00:08:11;11.60;;;5.78;;
21235;SDS011;10775;42.678;26.324;2022-12-07T00:10:36;10.85;;;6.00;;
21235;SDS011;10775;42.678;26.324;2022-12-07T00:13:02;14.10;;;6.00;;
21235;SDS011;10775;42.678;26.324;2022-12-07T00:15:28;13.18;;;6.28;;
21235;SDS011;10775;42.678;26.324;2022-12-07T00:17:53;10.40;;;5.38;;
21235;SDS011;10775;42.678;26.324;2022-12-07T00:20:19;13.05;;;6.15;;
21235;SDS011;10775;42.678;26.324;2022-12-07T00:22:44;10.77;;;5.75;;
21235;SDS011;10775;42.678;26.324;2022-12-07T00:25:10;12.50;;;6.10;;
21235;SDS011;10775;42.678;26.324;2022-12-07T00:27:36;9.98;;;5.60;;
21235;SDS011;10775;42.678;26.324;2022-12-07T00:30:02;11.43;;;5.72;;
21235;SDS011;10775;42.678;26.324;2022-12-07T00:32:27;12.35;;;6.00;;
21235;SDS011;10775;42.678;26.324;2022-12-07T00:34:53;12.88;;;5.95;;
21235;SDS011;10775;42.678;26.324;2022-12-07T00:37:18;12.50;;;6.00;;
21235;SDS011;10775;42.678;26.324;2022-12-07T00:39:45;11.55;;;5.53;;
21235;SDS011;10775;42.678;26.324;2022-12-07T00:42:11;14.18;;;6.20;;
21235;SDS011;10775;42.678;26.324;2022-12-07T00:44:36;11.20;;;5.70;;
21235;SDS011;10775;42.678;26.324;2022-12-07T00:47:02;11.20;;;5.68;;
21235;SDS011;10775;42.678;26.324;2022-12-07T00:49:28;10.68;;;6.18;;
21235;SDS011;10775;42.678;26.324;2022-12-07T00:51:53;13.68;;;6.85;;
21235;SDS011;10775;42.678;26.324;2022-12-07T00:54:19;14.52;;;6.30;;
21235;SDS011;10775;42.678;26.324;2022-12-07T00:56:45;10.85;;;5.90;;
21235;SDS011;10775;42.678;26.324;2022-12-07T00:59:12;9.73;;;5.78;;
21235;SDS011;10775;42.678;26.324;2022-12-07T01:01:41;12.15;;;6.18;;
21235;SDS011;10775;42.678;26.324;2022-12-07T01:04:07;10.63;;;5.60;;
21235;SDS011;10775;42.678;26.324;2022-12-07T01:06:33;10.98;;;5.93;;
21235;SDS011;10775;42.678;26.324;2022-12-07T01:08:59;11.35;;;5.68;;
21235;SDS011;10775;42.678;26.324;2022-12-07T01:11:27;12.95;;;6.15;;
21235;SDS011;10775;42.678;26.324;2022-12-07T01:13:55;12.90;;;6.13;;
21235;SDS011;10775;42.678;26.324;2022-12-07T01:16:23;12.13;;;5.45;;
21235;SDS011;10775;42.678;26.324;2022-12-07T01:18:51;11.55;;;5.15;;
21235;SDS011;10775;42.678;26.324;2022-12-07T01:21:21;12.77;;;5.72;;
21235;SDS011;10775;42.678;26.324;2022-12-07T01:23:51;12.43;;;6.20;;
21235;SDS011;10775;42.678;26.324;2022-12-07T01:26:19;9.93;;;5.10;;
21235;SDS011;10775;42.678;26.324;2022-12-07T01:28:46;11.15;;;5.53;;
21235;SDS011;10775;42.678;26.324;2022-12-07T01:31:14;10.77;;;5.40;;
21235;SDS011;10775;42.678;26.324;2022-12-07T01:37:03;10.25;;;5.40;;
21235;SDS011;10775;42.678;26.324;2022-12-07T01:39:28;11.30;;;5.55;;
21235;SDS011;10775;42.678;26.324;2022-12-07T01:41:54;11.73;;;5.30;;
21235;SDS011;10775;42.678;26.324;2022-12-07T01:44:21;10.43;;;5.78;;
21235;SDS011;10775;42.678;26.324;2022-12-07T01:49:16;12.20;;;5.80;;
21235;SDS011;10775;42.678;26.324;2022-12-07T01:51:46;12.73;;;6.38;;
21235;SDS011;10775;42.678;26.324;2022-12-07T01:54:13;12.20;;;5.90;;
21235;SDS011;10775;42.678;26.324;2022-12-07T01:56:42;14.18;;;6.63;;
21235;SDS011;10775;42.678;26.324;2022-12-07T01:59:13;12.32;;;6.15;;
21235;SDS011;10775;42.678;26.324;2022-12-07T02:01:38;10.73;;;5.53;;
21235;SDS011;10775;42.678;26.324;2022-12-07T02:04:04;12.50;;;5.70;;
21235;SDS011;10775;42.678;26.324;2022-12-07T02:06:31;12.13;;;5.78;;
21235;SDS011;10775;42.678;26.324;2022-12-07T02:08:57;9.18;;;5.15;;
21235;SDS011;10775;42.678;26.324;2022-12-07T02:11:22;11.68;;;5.22;;
21235;SDS011;10775;42.678;26.324;2022-12-07T02:13:48;12.50;;;5.07;;
21235;SDS011;10775;42.678;26.324;2022-12-07T02:16:21;10.35;;;5.10;;
21235;SDS011;10775;42.678;26.324;2022-12-07T02:21:51;11.13;;;5.07;;
21235;SDS011;10775;42.678;26.324;2022-12-07T02:24:25;10.00;;;4.93;;
21235;SDS011;10775;42.678;26.324;2022-12-07T02:30:09;10.38;;;5.00;;
21235;SDS011;10775;42.678;26.324;2022-12-07T02:35:26;9.15;;;4.78;;
21235;SDS011;10775;42.678;26.324;2022-12-07T02:43:14;9.02;;;4.45;;
21235;SDS011;10775;42.678;26.324;2022-12-07T02:45:44;11.65;;;5.18;;
21235;SDS011;10775;42.678;26.324;2022-12-07T02:48:13;14.68;;;6.60;;
21235;SDS011;10775;42.678;26.324;2022-12-07T02:50:48;15.40;;;6.40;;
21235;SDS011;10775;42.678;26.324;2022-12-07T02:53:35;14.73;;;5.97;;
21235;SDS011;10775;42.678;26.324;2022-12-07T02:56:03;14.90;;;6.45;;
21235;SDS011;10775;42.678;26.324;2022-12-07T02:58:48;14.50;;;5.82;;
21235;SDS011;10775;42.678;26.324;2022-12-07T03:01:41;13.82;;;5.75;;
21235;SDS011;10775;42.678;26.324;2022-12-07T03:07:36;13.43;;;5.97;;
21235;SDS011;10775;42.678;26.324;2022-12-07T03:15:46;11.30;;;5.18;;
21235;SDS011;10775;42.678;26.324;2022-12-07T03:18:20;10.70;;;5.20;;
21235;SDS011;10775;42.678;26.324;2022-12-07T03:20:49;12.35;;;5.13;;
21235;SDS011;10775;42.678;26.324;2022-12-07T03:23:18;13.07;;;5.65;;
21235;SDS011;10775;42.678;26.324;2022-12-07T03:25:47;14.57;;;5.18;;
21235;SDS011;10775;42.678;26.324;2022-12-07T03:28:18;13.13;;;5.82;;
21235;SDS011;10775;42.678;26.324;2022-12-07T03:31:30;10.27;;;5.43;;
21235;SDS011;10775;42.678;26.324;2022-12-07T03:33:47;13.77;;;5.82;;
21235;SDS011;10775;42.678;26.324;2022-12-07T03:36:19;10.38;;;5.28;;
21235;SDS011;10775;42.678;26.324;2022-12-07T03:41:34;9.38;;;4.63;;
21235;SDS011;10775;42.678;26.324;2022-12-07T03:44:02;11.05;;;4.70;;
21235;SDS011;10775;42.678;26.324;2022-12-07T03:46:32;12.43;;;5.88;;
21235;SDS011;10775;42.678;26.324;2022-12-07T03:49:10;9.23;;;5.20;;
21235;SDS011;10775;42.678;26.324;2022-12-07T03:51:51;11.13;;;5.10;;
21235;SDS011;10775;42.678;26.324;2022-12-07T03:54:25;10.40;;;5.35;;
21235;SDS011;10775;42.678;26.324;2022-12-07T03:56:55;10.07;;;4.65;;
21235;SDS011;10775;42.678;26.324;2022-12-07T03:59:22;12.23;;;5.15;;
21235;SDS011;10775;42.678;26.324;2022-12-07T04:01:53;9.93;;;5.07;;
21235;SDS011;10775;42.678;26.324;2022-12-07T04:04:21;10.45;;;4.97;;
21235;SDS011;10775;42.678;26.324;2022-12-07T04:06:48;11.43;;;5.63;;
21235;SDS011;10775;42.678;26.324;2022-12-07T04:09:14;11.18;;;5.18;;
21235;SDS011;10775;42.678;26.324;2022-12-07T04:11:40;12.00;;;5.60;;
21235;SDS011;10775;42.678;26.324;2022-12-07T04:14:05;13.15;;;5.57;;
21235;SDS011;10775;42.678;26.324;2022-12-07T04:16:43;9.93;;;5.03;;
21235;SDS011;10775;42.678;26.324;2022-12-07T04:19:13;10.63;;;4.65;;
21235;SDS011;10775;42.678;26.324;2022-12-07T04:21:39;11.18;;;5.60;;
21235;SDS011;10775;42.678;26.324;2022-12-07T04:24:05;10.32;;;5.30;;
21235;SDS011;10775;42.678;26.324;2022-12-07T04:26:30;9.80;;;5.38;;
21235;SDS011;10775;42.678;26.324;2022-12-07T04:28:56;12.35;;;5.80;;
21235;SDS011;10775;42.678;26.324;2022-12-07T04:31:22;11.18;;;5.80;;
21235;SDS011;10775;42.678;26.324;2022-12-07T04:33:47;11.02;;;5.90;;
21235;SDS011;10775;42.678;26.324;2022-12-07T04:36:13;13.73;;;5.85;;
21235;SDS011;10775;42.678;26.324;2022-12-07T04:38:39;11.55;;;5.80;;
21235;SDS011;10775;42.678;26.324;2022-12-07T04:41:08;13.90;;;6.57;;
21235;SDS011;10775;42.678;26.324;2022-12-07T04:43:34;12.55;;;6.50;;
21235;SDS011;10775;42.678;26.324;2022-12-07T04:46:00;13.43;;;5.97;;
21235;SDS011;10775;42.678;26.324;2022-12-07T04:48:26;13.35;;;6.40;;
21235;SDS011;10775;42.678;26.324;2022-12-07T04:50:52;11.75;;;6.38;;
21235;SDS011;10775;42.678;26.324;2022-12-07T04:53:18;13.55;;;5.90;;
21235;SDS011;10775;42.678;26.324;2022-12-07T04:55:44;9.98;;;5.43;;
21235;SDS011;10775;42.678;26.324;2022-12-07T04:58:10;12.40;;;5.93;;
21235;SDS011;10775;42.678;26.324;2022-12-07T05:00:36;13.52;;;6.10;;
21235;SDS011;10775;42.678;26.324;2022-12-07T05:03:02;12.63;;;6.22;;
21235;SDS011;10775;42.678;26.324;2022-12-07T05:05:27;12.57;;;6.00;;
21235;SDS011;10775;42.678;26.324;2022-12-07T05:07:53;11.18;;;6.00;;
21235;SDS011;10775;42.678;26.324;2022-12-07T05:10:19;11.60;;;5.65;;
21235;SDS011;10775;42.678;26.324;2022-12-07T05:12:44;10.85;;;5.82;;
21235;SDS011;10775;42.678;26.324;2022-12-07T05:15:10;9.50;;;5.05;;
21235;SDS011;10775;42.678;26.324;2022-12-07T05:17:37;12.77;;;5.70;;
21235;SDS011;10775;42.678;26.324;2022-12-07T05:20:02;11.45;;;5.38;;
21235;SDS011;10775;42.678;26.324;2022-12-07T05:22:29;10.77;;;5.03;;
21235;SDS011;10775;42.678;26.324;2022-12-07T05:24:54;9.38;;;4.85;;
21235;SDS011;10775;42.678;26.324;2022-12-07T05:27:20;9.13;;;5.05;;
21235;SDS011;10775;42.678;26.324;2022-12-07T05:29:46;14.30;;;5.85;;
21235;SDS011;10775;42.678;26.324;2022-12-07T05:32:11;12.18;;;5.35;;
21235;SDS011;10775;42.678;26.324;2022-12-07T05:34:37;10.55;;;5.40;;
21235;SDS011;10775;42.678;26.324;2022-12-07T05:37:02;12.23;;;5.20;;
21235;SDS011;10775;42.678;26.324;2022-12-07T05:39:28;13.90;;;6.15;;
21235;SDS011;10775;42.678;26.324;2022-12-07T05:41:53;12.23;;;5.72;;
21235;SDS011;10775;42.678;26.324;2022-12-07T05:44:40;10.82;;;5.40;;
21235;SDS011;10775;42.678;26.324;2022-12-07T05:47:07;11.60;;;5.28;;
21235;SDS011;10775;42.678;26.324;2022-12-07T05:49:33;9.55;;;5.45;;
21235;SDS011;10775;42.678;26.324;2022-12-07T05:51:59;12.15;;;5.03;;
21235;SDS011;10775;42.678;26.324;2022-12-07T05:54:24;12.15;;;5.25;;
21235;SDS011;10775;42.678;26.324;2022-12-07T05:56:50;11.93;;;6.15;;
21235;SDS011;10775;42.678;26.324;2022-12-07T05:59:16;17.30;;;7.70;;
21235;SDS011;10775;42.678;26.324;2022-12-07T06:01:47;13.70;;;7.43;;
21235;SDS011;10775;42.678;26.324;2022-12-07T06:04:18;17.40;;;8.48;;
21235;SDS011;10775;42.678;26.324;2022-12-07T06:06:44;16.08;;;6.97;;
21235;SDS011;10775;42.678;26.324;2022-12-07T06:09:10;16.95;;;7.63;;
21235;SDS011;10775;42.678;26.324;2022-12-07T06:11:35;15.70;;;7.43;;
21235;SDS011;10775;42.678;26.324;2022-12-07T06:14:19;13.85;;;7.03;;
21235;SDS011;10775;42.678;26.324;2022-12-07T06:16:45;11.70;;;6.30;;
21235;SDS011;10775;42.678;26.324;2022-12-07T06:19:11;15.02;;;7.75;;
21235;SDS011;10775;42.678;26.324;2022-12-07T06:21:36;14.90;;;7.93;;
21235;SDS011;10775;42.678;26.324;2022-12-07T06:24:02;18.70;;;8.50;;
21235;SDS011;10775;42.678;26.324;2022-12-07T06:26:28;15.70;;;8.10;;
21235;SDS011;10775;42.678;26.324;2022-12-07T06:28:53;18.08;;;8.27;;
21235;SDS011;10775;42.678;26.324;2022-12-07T06:31:19;12.77;;;6.10;;
21235;SDS011;10775;42.678;26.324;2022-12-07T06:33:44;11.50;;;5.53;;
21235;SDS011;10775;42.678;26.324;2022-12-07T06:36:10;13.20;;;6.30;;
21235;SDS011;10775;42.678;26.324;2022-12-07T06:38:36;19.02;;;7.43;;
21235;SDS011;10775;42.678;26.324;2022-12-07T06:41:02;16.73;;;7.72;;
21235;SDS011;10775;42.678;26.324;2022-12-07T06:43:28;15.38;;;7.20;;
21235;SDS011;10775;42.678;26.324;2022-12-07T06:45:54;14.35;;;8.00;;
21235;SDS011;10775;42.678;26.324;2022-12-07T06:48:19;18.65;;;7.75;;
21235;SDS011;10775;42.678;26.324;2022-12-07T06:50:45;26.77;;;12.98;;
21235;SDS011;10775;42.678;26.324;2022-12-07T06:53:11;32.85;;;16.38;;
21235;SDS011;10775;42.678;26.324;2022-12-07T06:55:37;28.85;;;13.02;;
21235;SDS011;10775;42.678;26.324;2022-12-07T06:58:02;25.05;;;13.63;;
21235;SDS011;10775;42.678;26.324;2022-12-07T07:00:28;29.35;;;14.60;;
21235;SDS011;10775;42.678;26.324;2022-12-07T07:02:54;36.10;;;15.85;;
21235;SDS011;10775;42.678;26.324;2022-12-07T07:05:20;36.95;;;18.70;;
21235;SDS011;10775;42.678;26.324;2022-12-07T07:07:47;38.03;;;18.80;;
21235;SDS011;10775;42.678;26.324;2022-12-07T07:10:16;41.65;;;21.08;;
21235;SDS011;10775;42.678;26.324;2022-12-07T07:12:41;53.53;;;23.17;;
21235;SDS011;10775;42.678;26.324;2022-12-07T07:15:07;55.35;;;23.45;;
21235;SDS011;10775;42.678;26.324;2022-12-07T07:17:33;52.35;;;23.05;;
21235;SDS011;10775;42.678;26.324;2022-12-07T07:19:58;57.35;;;26.42;;
21235;SDS011;10775;42.678;26.324;2022-12-07T07:22:24;59.83;;;26.98;;
21235;SDS011;10775;42.678;26.324;2022-12-07T07:24:50;53.58;;;25.15;;
21235;SDS011;10775;42.678;26.324;2022-12-07T07:27:15;60.55;;;27.15;;
21235;SDS011;10775;42.678;26.324;2022-12-07T07:29:41;67.32;;;28.92;;
21235;SDS011;10775;42.678;26.324;2022-12-07T07:32:07;60.47;;;29.15;;
21235;SDS011;10775;42.678;26.324;2022-12-07T07:34:32;67.35;;;29.85;;
21235;SDS011;10775;42.678;26.324;2022-12-07T07:36:58;67.47;;;30.70;;
21235;SDS011;10775;42.678;26.324;2022-12-07T07:39:24;71.13;;;33.53;;
21235;SDS011;10775;42.678;26.324;2022-12-07T07:41:50;68.57;;;32.80;;
21235;SDS011;10775;42.678;26.324;2022-12-07T07:44:15;77.88;;;35.88;;
21235;SDS011;10775;42.678;26.324;2022-12-07T07:46:41;74.18;;;34.97;;
21235;SDS011;10775;42.678;26.324;2022-12-07T07:49:07;69.45;;;33.80;;
21235;SDS011;10775;42.678;26.324;2022-12-07T07:51:34;79.10;;;34.63;;
21235;SDS011;10775;42.678;26.324;2022-12-07T07:53:59;79.72;;;34.55;;
21235;SDS011;10775;42.678;26.324;2022-12-07T07:56:25;71.22;;;34.13;;
21235;SDS011;10775;42.678;26.324;2022-12-07T07:58:54;76.55;;;34.58;;
21235;SDS011;10775;42.678;26.324;2022-12-07T08:01:20;73.53;;;34.08;;
21235;SDS011;10775;42.678;26.324;2022-12-07T08:03:46;81.97;;;36.83;;
21235;SDS011;10775;42.678;26.324;2022-12-07T08:06:12;83.55;;;35.60;;
21235;SDS011;10775;42.678;26.324;2022-12-07T08:08:38;71.25;;;33.15;;
21235;SDS011;10775;42.678;26.324;2022-12-07T08:11:06;84.30;;;35.97;;
21235;SDS011;10775;42.678;26.324;2022-12-07T08:13:33;79.10;;;35.47;;
21235;SDS011;10775;42.678;26.324;2022-12-07T08:15:58;48.22;;;23.75;;
21235;SDS011;10775;42.678;26.324;2022-12-07T08:18:29;77.47;;;34.08;;
21235;SDS011;10775;42.678;26.324;2022-12-07T08:20:58;79.03;;;34.50;;
21235;SDS011;10775;42.678;26.324;2022-12-07T08:23:28;80.72;;;36.20;;
21235;SDS011;10775;42.678;26.324;2022-12-07T08:25:54;80.22;;;35.80;;
21235;SDS011;10775;42.678;26.324;2022-12-07T08:28:19;87.65;;;41.75;;
21235;SDS011;10775;42.678;26.324;2022-12-07T08:30:45;79.47;;;35.75;;
21235;SDS011;10775;42.678;26.324;2022-12-07T08:33:11;89.00;;;38.88;;
21235;SDS011;10775;42.678;26.324;2022-12-07T08:35:36;83.30;;;38.35;;
21235;SDS011;10775;42.678;26.324;2022-12-07T08:38:02;98.47;;;40.55;;
21235;SDS011;10775;42.678;26.324;2022-12-07T08:40:28;122.43;;;51.28;;
21235;SDS011;10775;42.678;26.324;2022-12-07T08:42:55;94.88;;;41.20;;
21235;SDS011;10775;42.678;26.324;2022-12-07T08:45:21;96.82;;;42.50;;
21235;SDS011;10775;42.678;26.324;2022-12-07T08:50:20;79.78;;;35.88;;
21235;SDS011;10775;42.678;26.324;2022-12-07T08:52:53;81.40;;;36.50;;
21235;SDS011;10775;42.678;26.324;2022-12-07T08:55:24;81.28;;;36.53;;
21235;SDS011;10775;42.678;26.324;2022-12-07T08:57:50;88.43;;;37.72;;
21235;SDS011;10775;42.678;26.324;2022-12-07T09:00:16;116.70;;;49.92;;
21235;SDS011;10775;42.678;26.324;2022-12-07T09:02:43;84.30;;;38.15;;
21235;SDS011;10775;42.678;26.324;2022-12-07T09:05:09;80.75;;;35.83;;
21235;SDS011;10775;42.678;26.324;2022-12-07T09:07:35;79.20;;;34.15;;
21235;SDS011;10775;42.678;26.324;2022-12-07T09:10:02;74.07;;;32.38;;
21235;SDS011;10775;42.678;26.324;2022-12-07T09:12:30;72.63;;;33.90;;
21235;SDS011;10775;42.678;26.324;2022-12-07T09:14:55;67.93;;;31.70;;
21235;SDS011;10775;42.678;26.324;2022-12-07T09:17:21;70.03;;;32.53;;
21235;SDS011;10775;42.678;26.324;2022-12-07T09:19:47;73.07;;;32.88;;
21235;SDS011;10775;42.678;26.324;2022-12-07T09:22:12;65.47;;;31.42;;
21235;SDS011;10775;42.678;26.324;2022-12-07T09:24:38;72.72;;;32.05;;
21235;SDS011;10775;42.678;26.324;2022-12-07T09:27:04;75.95;;;34.25;;
21235;SDS011;10775;42.678;26.324;2022-12-07T09:29:29;74.97;;;33.78;;
21235;SDS011;10775;42.678;26.324;2022-12-07T09:31:55;74.57;;;33.83;;
21235;SDS011;10775;42.678;26.324;2022-12-07T09:34:21;75.90;;;33.65;;
21235;SDS011;10775;42.678;26.324;2022-12-07T09:36:46;83.25;;;37.33;;
21235;SDS011;10775;42.678;26.324;2022-12-07T09:39:12;75.85;;;34.15;;
21235;SDS011;10775;42.678;26.324;2022-12-07T09:41:42;70.93;;;32.25;;
21235;SDS011;10775;42.678;26.324;2022-12-07T09:44:12;64.20;;;30.67;;
21235;SDS011;10775;42.678;26.324;2022-12-07T09:46:40;69.00;;;30.90;;
21235;SDS011;10775;42.678;26.324;2022-12-07T09:49:18;70.47;;;30.13;;
21235;SDS011;10775;42.678;26.324;2022-12-07T09:51:46;62.22;;;27.52;;
21235;SDS011;10775;42.678;26.324;2022-12-07T09:54:13;65.85;;;30.67;;
21235;SDS011;10775;42.678;26.324;2022-12-07T09:56:41;58.42;;;26.23;;
21235;SDS011;10775;42.678;26.324;2022-12-07T09:59:13;59.28;;;26.70;;
21235;SDS011;10775;42.678;26.324;2022-12-07T10:01:43;59.00;;;26.25;;
21235;SDS011;10775;42.678;26.324;2022-12-07T10:04:11;63.42;;;27.98;;
21235;SDS011;10775;42.678;26.324;2022-12-07T10:06:38;56.10;;;26.25;;
21235;SDS011;10775;42.678;26.324;2022-12-07T10:09:10;58.55;;;26.83;;
21235;SDS011;10775;42.678;26.324;2022-12-07T10:14:34;52.85;;;23.48;;
21235;SDS011;10775;42.678;26.324;2022-12-07T10:17:02;56.53;;;26.80;;
21235;SDS011;10775;42.678;26.324;2022-12-07T10:19:47;48.33;;;24.05;;
21235;SDS011;10775;42.678;26.324;2022-12-07T10:22:15;50.10;;;22.85;;
21235;SDS011;10775;42.678;26.324;2022-12-07T10:24:47;48.50;;;22.52;;
21235;SDS011;10775;42.678;26.324;2022-12-07T10:29:47;50.03;;;23.48;;
21235;SDS011;10775;42.678;26.324;2022-12-07T10:34:41;46.30;;;22.33;;
21235;SDS011;10775;42.678;26.324;2022-12-07T10:39:52;51.60;;;23.02;;
21235;SDS011;10775;42.678;26.324;2022-12-07T10:42:29;45.40;;;20.95;;
21235;SDS011;10775;42.678;26.324;2022-12-07T10:45:12;42.85;;;19.67;;
21235;SDS011;10775;42.678;26.324;2022-12-07T10:53:33;46.42;;;21.45;;
21235;SDS011;10775;42.678;26.324;2022-12-07T10:59:33;40.00;;;19.15;;
21235;SDS011;10775;42.678;26.324;2022-12-07T11:02:24;42.08;;;18.83;;
21235;SDS011;10775;42.678;26.324;2022-12-07T11:21:48;21.80;;;10.38;;
21235;SDS011;10775;42.678;26.324;2022-12-07T11:24:20;24.53;;;10.73;;
21235;SDS011;10775;42.678;26.324;2022-12-07T11:37:36;30.98;;;15.82;;
21235;SDS011;10775;42.678;26.324;2022-12-07T11:40:04;30.48;;;14.60;;
21235;SDS011;10775;42.678;26.324;2022-12-07T11:42:36;33.35;;;16.27;;
21235;SDS011;10775;42.678;26.324;2022-12-07T11:45:15;36.65;;;17.90;;
21235;SDS011;10775;42.678;26.324;2022-12-07T11:47:47;35.70;;;17.10;;
21235;SDS011;10775;42.678;26.324;2022-12-07T11:50:34;35.45;;;17.50;;
21235;SDS011;10775;42.678;26.324;2022-12-07T11:53:03;46.58;;;19.73;;
21235;SDS011;10775;42.678;26.324;2022-12-07T12:03:52;45.55;;;21.67;;
21235;SDS011;10775;42.678;26.324;2022-12-07T12:06:29;44.85;;;21.42;;
21235;SDS011;10775;42.678;26.324;2022-12-07T12:09:40;45.08;;;21.00;;
21235;SDS011;10775;42.678;26.324;2022-12-07T12:23:19;53.85;;;23.50;;
21235;SDS011;10775;42.678;26.324;2022-12-07T12:25:52;55.15;;;22.25;;
21235;SDS011;10775;42.678;26.324;2022-12-07T12:33:59;41.20;;;19.10;;
21235;SDS011;10775;42.678;26.324;2022-12-07T12:36:48;48.33;;;23.35;;
21235;SDS011;10775;42.678;26.324;2022-12-07T12:39:16;52.33;;;23.65;;
21235;SDS011;10775;42.678;26.324;2022-12-07T12:46:51;54.60;;;26.30;;
21235;SDS011;10775;42.678;26.324;2022-12-07T12:51:50;51.03;;;23.13;;
21235;SDS011;10775;42.678;26.324;2022-12-07T12:54:29;54.08;;;23.90;;
21235;SDS011;10775;42.678;26.324;2022-12-07T13:16:38;57.30;;;27.48;;
21235;SDS011;10775;42.678;26.324;2022-12-07T13:34:26;58.05;;;25.02;;
21235;SDS011;10775;42.678;26.324;2022-12-07T13:36:54;52.83;;;25.90;;
21235;SDS011;10775;42.678;26.324;2022-12-07T13:39:21;53.83;;;25.58;;
21235;SDS011;10775;42.678;26.324;2022-12-07T13:41:49;68.07;;;29.02;;
21235;SDS011;10775;42.678;26.324;2022-12-07T13:44:21;53.42;;;25.40;;
21235;SDS011;10775;42.678;26.324;2022-12-07T13:46:53;56.85;;;25.15;;
21235;SDS011;10775;42.678;26.324;2022-12-07T13:49:45;54.90;;;25.00;;
21235;SDS011;10775;42.678;26.324;2022-12-07T13:57:24;58.53;;;27.38;;
21235;SDS011;10775;42.678;26.324;2022-12-07T13:59:51;55.90;;;28.10;;
21235;SDS011;10775;42.678;26.324;2022-12-07T14:02:22;59.13;;;28.73;;
21235;SDS011;10775;42.678;26.324;2022-12-07T14:04:52;56.05;;;26.88;;
21235;SDS011;10775;42.678;26.324;2022-12-07T14:07:31;63.78;;;31.17;;
21235;SDS011;10775;42.678;26.324;2022-12-07T14:10:00;64.68;;;31.23;;
21235;SDS011;10775;42.678;26.324;2022-12-07T14:12:28;64.93;;;31.25;;
21235;SDS011;10775;42.678;26.324;2022-12-07T14:14:55;64.28;;;31.50;;
21235;SDS011;10775;42.678;26.324;2022-12-07T14:17:23;68.03;;;32.38;;
21235;SDS011;10775;42.678;26.324;2022-12-07T14:20:00;67.85;;;32.72;;
21235;SDS011;10775;42.678;26.324;2022-12-07T14:22:36;67.78;;;31.38;;
21235;SDS011;10775;42.678;26.324;2022-12-07T14:27:55;65.53;;;32.42;;
21235;SDS011;10775;42.678;26.324;2022-12-07T14:30:29;69.78;;;34.05;;
21235;SDS011;10775;42.678;26.324;2022-12-07T14:33:00;72.47;;;32.05;;
21235;SDS011;10775;42.678;26.324;2022-12-07T14:35:28;72.68;;;32.50;;
21235;SDS011;10775;42.678;26.324;2022-12-07T14:37:55;72.72;;;33.78;;
21235;SDS011;10775;42.678;26.324;2022-12-07T14:40:22;69.32;;;32.38;;
21235;SDS011;10775;42.678;26.324;2022-12-07T14:43:22;70.80;;;32.17;;
21235;SDS011;10775;42.678;26.324;2022-12-07T14:45:42;68.13;;;30.17;;
21235;SDS011;10775;42.678;26.324;2022-12-07T14:48:11;62.95;;;31.83;;
21235;SDS011;10775;42.678;26.324;2022-12-07T14:53:09;62.25;;;27.02;;
21235;SDS011;10775;42.678;26.324;2022-12-07T14:55:41;58.03;;;28.08;;
21235;SDS011;10775;42.678;26.324;2022-12-07T14:58:28;58.97;;;25.88;;
21235;SDS011;10775;42.678;26.324;2022-12-07T15:00:52;52.45;;;25.02;;
21235;SDS011;10775;42.678;26.324;2022-12-07T15:03:18;55.83;;;25.15;;
21235;SDS011;10775;42.678;26.324;2022-12-07T15:05:43;48.70;;;23.80;;
21235;SDS011;10775;42.678;26.324;2022-12-07T15:08:10;48.63;;;22.08;;
21235;SDS011;10775;42.678;26.324;2022-12-07T15:10:38;40.60;;;21.77;;
21235;SDS011;10775;42.678;26.324;2022-12-07T15:13:05;41.47;;;21.10;;
21235;SDS011;10775;42.678;26.324;2022-12-07T15:15:51;43.63;;;20.77;;
21235;SDS011;10775;42.678;26.324;2022-12-07T15:18:18;40.03;;;21.10;;
21235;SDS011;10775;42.678;26.324;2022-12-07T15:20:45;39.60;;;20.48;;
21235;SDS011;10775;42.678;26.324;2022-12-07T15:23:11;44.25;;;20.90;;
21235;SDS011;10775;42.678;26.324;2022-12-07T15:25:41;40.42;;;20.30;;
21235;SDS011;10775;42.678;26.324;2022-12-07T15:28:07;41.22;;;19.90;;
21235;SDS011;10775;42.678;26.324;2022-12-07T15:30:33;35.83;;;19.15;;
21235;SDS011;10775;42.678;26.324;2022-12-07T15:32:58;41.35;;;20.05;;
21235;SDS011;10775;42.678;26.324;2022-12-07T15:35:24;38.45;;;20.23;;
21235;SDS011;10775;42.678;26.324;2022-12-07T15:37:49;43.15;;;23.13;;
21235;SDS011;10775;42.678;26.324;2022-12-07T15:40:15;42.97;;;22.50;;
21235;SDS011;10775;42.678;26.324;2022-12-07T15:42:41;40.30;;;21.67;;
21235;SDS011;10775;42.678;26.324;2022-12-07T15:45:07;41.53;;;22.58;;
21235;SDS011;10775;42.678;26.324;2022-12-07T15:47:37;45.40;;;22.92;;
21235;SDS011;10775;42.678;26.324;2022-12-07T15:50:04;42.65;;;22.25;;
21235;SDS011;10775;42.678;26.324;2022-12-07T15:52:32;39.97;;;21.77;;
21235;SDS011;10775;42.678;26.324;2022-12-07T15:54:58;39.78;;;18.27;;
21235;SDS011;10775;42.678;26.324;2022-12-07T15:57:28;35.17;;;18.30;;
21235;SDS011;10775;42.678;26.324;2022-12-07T15:59:54;36.30;;;18.33;;
21235;SDS011;10775;42.678;26.324;2022-12-07T16:02:20;41.97;;;21.30;;
21235;SDS011;10775;42.678;26.324;2022-12-07T16:04:47;36.33;;;20.60;;
21235;SDS011;10775;42.678;26.324;2022-12-07T16:07:13;38.25;;;20.30;;
21235;SDS011;10775;42.678;26.324;2022-12-07T16:09:41;36.88;;;19.13;;
21235;SDS011;10775;42.678;26.324;2022-12-07T16:12:07;34.40;;;18.88;;
21235;SDS011;10775;42.678;26.324;2022-12-07T16:14:33;32.20;;;17.70;;
21235;SDS011;10775;42.678;26.324;2022-12-07T16:16:59;33.08;;;16.92;;
21235;SDS011;10775;42.678;26.324;2022-12-07T16:19:25;50.08;;;27.50;;
21235;SDS011;10775;42.678;26.324;2022-12-07T16:21:51;39.45;;;22.85;;
21235;SDS011;10775;42.678;26.324;2022-12-07T16:24:17;37.42;;;20.35;;
21235;SDS011;10775;42.678;26.324;2022-12-07T16:26:43;42.63;;;21.92;;
21235;SDS011;10775;42.678;26.324;2022-12-07T16:29:11;36.33;;;20.50;;
21235;SDS011;10775;42.678;26.324;2022-12-07T16:31:37;34.45;;;18.80;;
21235;SDS011;10775;42.678;26.324;2022-12-07T16:34:03;34.17;;;18.92;;
21235;SDS011;10775;42.678;26.324;2022-12-07T16:36:29;34.75;;;20.33;;
21235;SDS011;10775;42.678;26.324;2022-12-07T16:38:55;35.50;;;20.83;;
21235;SDS011;10775;42.678;26.324;2022-12-07T16:41:23;31.25;;;17.35;;
21235;SDS011;10775;42.678;26.324;2022-12-07T16:43:48;34.03;;;19.75;;
21235;SDS011;10775;42.678;26.324;2022-12-07T16:46:14;33.40;;;19.30;;
21235;SDS011;10775;42.678;26.324;2022-12-07T16:48:40;44.55;;;24.67;;
21235;SDS011;10775;42.678;26.324;2022-12-07T16:51:07;86.65;;;49.53;;
21235;SDS011;10775;42.678;26.324;2022-12-07T16:53:35;41.05;;;22.70;;
21235;SDS011;10775;42.678;26.324;2022-12-07T16:56:02;33.63;;;18.95;;
21235;SDS011;10775;42.678;26.324;2022-12-07T16:58:28;62.90;;;40.13;;
21235;SDS011;10775;42.678;26.324;2022-12-07T17:00:55;52.28;;;31.70;;
21235;SDS011;10775;42.678;26.324;2022-12-07T17:03:21;35.03;;;20.02;;